Map

Track Data

SID SEASON NUMBER BASIN SUBBASIN NAME ISO_TIME NATURE LAT LON WMO_WIND WMO_PRES WMO_AGENCY TRACK_TYPE DIST2LAND LANDFALL IFLAG USA_AGENCY USA_ATCF_ID USA_LAT USA_LON USA_RECORD USA_STATUS USA_WIND USA_PRES USA_SSHS USA_R34_NE USA_R34_SE USA_R34_SW USA_R34_NW USA_R50_NE USA_R50_SE USA_R50_SW USA_R50_NW USA_R64_NE USA_R64_SE USA_R64_SW USA_R64_NW USA_POCI USA_ROCI USA_RMW USA_EYE TOKYO_LAT TOKYO_LON TOKYO_GRADE TOKYO_WIND TOKYO_PRES TOKYO_R50_DIR TOKYO_R50_LONG TOKYO_R50_SHORT TOKYO_R30_DIR TOKYO_R30_LONG TOKYO_R30_SHORT TOKYO_LAND CMA_LAT CMA_LON CMA_CAT CMA_WIND CMA_PRES HKO_LAT HKO_LON HKO_CAT HKO_WIND HKO_PRES NEWDELHI_LAT NEWDELHI_LON NEWDELHI_GRADE NEWDELHI_WIND NEWDELHI_PRES NEWDELHI_CI NEWDELHI_DP NEWDELHI_POCI REUNION_LAT REUNION_LON REUNION_TYPE REUNION_WIND REUNION_PRES REUNION_TNUM REUNION_CI REUNION_RMW REUNION_R34_NE REUNION_R34_SE REUNION_R34_SW REUNION_R34_NW REUNION_R50_NE REUNION_R50_SE REUNION_R50_SW REUNION_R50_NW REUNION_R64_NE REUNION_R64_SE REUNION_R64_SW REUNION_R64_NW BOM_LAT BOM_LON BOM_TYPE BOM_WIND BOM_PRES BOM_TNUM BOM_CI BOM_RMW BOM_R34_NE BOM_R34_SE BOM_R34_SW BOM_R34_NW BOM_R50_NE BOM_R50_SE BOM_R50_SW BOM_R50_NW BOM_R64_NE BOM_R64_SE BOM_R64_SW BOM_R64_NW BOM_ROCI BOM_POCI BOM_EYE BOM_POS_METHOD BOM_PRES_METHOD NADI_LAT NADI_LON NADI_CAT NADI_WIND NADI_PRES WELLINGTON_LAT WELLINGTON_LON WELLINGTON_WIND WELLINGTON_PRES DS824_LAT DS824_LON DS824_STAGE DS824_WIND DS824_PRES TD9636_LAT TD9636_LON TD9636_STAGE TD9636_WIND TD9636_PRES TD9635_LAT TD9635_LON TD9635_WIND TD9635_PRES TD9635_ROCI NEUMANN_LAT NEUMANN_LON NEUMANN_CLASS NEUMANN_WIND NEUMANN_PRES MLC_LAT MLC_LON MLC_CLASS MLC_WIND MLC_PRES USA_GUST BOM_GUST BOM_GUST_PER REUNION_GUST REUNION_GUST_PER USA_SEAHGT USA_SEARAD_NE USA_SEARAD_SE USA_SEARAD_SW USA_SEARAD_NW STORM_SPEED STORM_DIR
1968261N12336 1968 93 NA NA NOT_NAMED 1968-09-17 06:00:00 TS 12.0000 -23.9000 25 atcf main 755 755 O_____________ atcf AL101968 12.0000 -23.9000 TD 25 -1 6 280
1968261N12336 1968 93 NA NA NOT_NAMED 1968-09-17 09:00:00 TS 12.0526 -24.2049 main 781 781 P_____________ AL101968 12.0526 -24.2049 TD 25 -1 6 280
1968261N12336 1968 93 NA NA NOT_NAMED 1968-09-17 12:00:00 TS 12.1000 -24.5000 25 atcf main 811 811 O_____________ atcf AL101968 12.1000 -24.5000 TD 25 -1 6 279
1968261N12336 1968 93 NA NA NOT_NAMED 1968-09-17 15:00:00 TS 12.1423 -24.7976 main 841 841 P_____________ AL101968 12.1423 -24.7976 TD 25 -1 7 278
1968261N12336 1968 93 NA NA NOT_NAMED 1968-09-17 18:00:00 TS 12.2000 -25.2000 25 atcf main 878 878 O_____________ atcf AL101968 12.2000 -25.2000 TD 25 -1 10 278
1968261N12336 1968 93 NA NA NOT_NAMED 1968-09-17 21:00:00 TS 12.2699 -25.7827 main 937 937 P_____________ AL101968 12.2699 -25.7827 TD 25 -1 13 279
1968261N12336 1968 93 NA NA NOT_NAMED 1968-09-18 00:00:00 TS 12.4000 -26.5000 25 atcf main 1006 1006 O_____________ atcf AL101968 12.4000 -26.5000 TD 25 -1 16 284
1968261N12336 1968 93 NA NA NOT_NAMED 1968-09-18 03:00:00 TS 12.6580 -27.3670 main 1093 1093 P_____________ AL101968 12.6882 -27.4194 TD 25 -1 16 288
1968261N12336 1968 93 NA NA NOT_NAMED 1968-09-18 06:00:00 TS 12.9000 -28.1000 25 atcf main 1162 1162 O_____________ atcf AL101968 12.9000 -28.1000 TD 25 -1 10 289
1968261N12336 1968 93 NA NA NOT_NAMED 1968-09-18 09:00:00 TS 12.9794 -28.3378 main 1181 1181 P_____________ AL101968 12.7646 -27.9876 TD 27 -1 3 275
1968261N12336 1968 93 NA NA NOT_NAMED 1968-09-18 12:00:00 TS 12.9200 -28.3600 30 hurdat_atl main 1194 1194 O_____________ hurdat_atl AL101968 12.6000 -27.8000 TD 30 -1 5 266
1968261N12336 1968 93 NA NA NOT_NAMED 1968-09-18 15:00:00 TS 12.9470 -28.8024 main 1237 1237 P_____________ AL101968 12.7052 -28.2449 TD 30 -1 9 276
1968261N12336 1968 93 NA NA NOT_NAMED 1968-09-18 18:00:00 TS 13.0143 -29.3000 30 hurdat_atl main 1288 1288 O_____________ hurdat_atl AL101968 12.9000 -28.9000 TD 30 -1 9 280
1968261N12336 1968 93 NA NA NOT_NAMED 1968-09-18 21:00:00 TS 13.1023 -29.7039 main 1329 1329 P_____________ AL101968 13.0348 -29.4427 TD 27 -1 9 286
1968261N12336 1968 93 NA NA NOT_NAMED 1968-09-19 00:00:00 TS 13.2500 -30.1500 25 hurdat_atl main 1368 1368 O_____________ hurdat_atl AL101968 13.2000 -30.0000 TD 25 -1 10 293
1968261N12336 1968 93 NA NA NOT_NAMED 1968-09-19 03:00:00 TS 13.4847 -30.6338 main 1419 1419 P_____________ AL101968 13.4349 -30.5925 TD 25 -1 11 296
1968261N12336 1968 93 NA NA NOT_NAMED 1968-09-19 06:00:00 TS 13.7500 -31.2000 25 hurdat_atl main 1480 1480 O_____________ hurdat_atl AL101968 13.7000 -31.2000 TD 25 -1 13 291
1968261N12336 1968 93 NA NA NOT_NAMED 1968-09-19 09:00:00 TS 13.9603 -31.9214 main 1553 1553 P_____________ AL101968 13.9349 -31.8003 TD 25 -1 15 288
1968261N12336 1968 93 NA NA NOT_NAMED 1968-09-19 12:00:00 TS 14.2000 -32.6500 25 hurdat_atl main 1627 1638 O_____________ hurdat_atl AL101968 14.2000 -32.4000 TD 25 -1 14 294
1968261N12336 1968 93 NA NA NOT_NAMED 1968-09-19 15:00:00 TS 14.5384 -33.2300 main 1689 1689 P_____________ AL101968 14.5349 -33.0001 TD 25 -1 13 303
1968261N12336 1968 93 NA NA NOT_NAMED 1968-09-19 18:00:00 TS 14.9000 -33.7500 25 hurdat_atl main 1742 1752 O_____________ hurdat_atl AL101968 14.9000 -33.6000 TD 25 -1 12 303
1968261N12336 1968 93 NA NA NOT_NAMED 1968-09-19 21:00:00 TS 15.1999 -34.2939 main 1806 1806 P_____________ AL101968 15.2498 -34.2002 TD 25 -1 12 301
1968261N12336 1968 93 NA NA NOT_NAMED 1968-09-20 00:00:00 MX 15.5000 -34.8000 25 hurdat_atl main 1859 1859 O_____________ hurdat_atl AL101968 15.6000 -34.8000 LO 25 -3 11 306
1968261N12336 1968 93 NA NA NOT_NAMED 1968-09-20 03:00:00 MX 15.8384 -35.2029 main 1903 1903 P_____________ AL101968 15.9423 -35.4003 LO 25 -3 11 311
1968261N12336 1968 93 NA NA NOT_NAMED 1968-09-20 06:00:00 MX 16.2000 -35.6500 25 hurdat_atl main 1947 1957 O_____________ hurdat_atl AL101968 16.3000 -36.0000 LO 25 -3 13 305
1968261N12336 1968 93 NA NA NOT_NAMED 1968-09-20 09:00:00 MX 16.5827 -36.2986 main 2024 2024 P_____________ AL101968 16.6848 -36.6003 LO 25 -3 15 300
1968261N12336 1968 93 NA NA NOT_NAMED 1968-09-20 12:00:00 MX 16.9286 -36.9714 25 hurdat_atl main 2100 2078 O_____________ hurdat_atl AL101968 17.1000 -37.2000 LO 25 -3 13 295
1968261N12336 1968 93 NA NA NOT_NAMED 1968-09-20 15:00:00 MX 17.1374 -37.5537 main 2070 2047 P_____________ AL101968 17.6101 -37.8369 LO 25 -3 11 288
1968261N12336 1968 93 NA NA NOT_NAMED 1968-09-20 18:00:00 MX 17.2800 -38.0800 25 hurdat_atl main 2047 2024 O_____________ hurdat_atl AL101968 18.0000 -38.4000 LO 25 -3 10 291
1968261N12336 1968 93 NA NA NOT_NAMED 1968-09-20 21:00:00 TS 17.4972 -38.5426 main 2032 2025 P_____________ AL101968 17.9919 -38.7438 LO 25 -3 12 306
1968261N12336 1968 93 NA NA NOT_NAMED 1968-09-21 00:00:00 TS 18.0000 -39.1000 25 atcf main 2029 2021 O_____________ atcf AL101968 18.0000 -39.1000 TD 25 -1 15 311
1968261N12336 1968 93 NA NA NOT_NAMED 1968-09-21 03:00:00 TS 18.4926 -39.7575 main 2023 2020 P_____________ AL101968 18.4254 -39.7268 TD 25 -1 16 309
1968261N12336 1968 93 NA NA NOT_NAMED 1968-09-21 06:00:00 TS 19.0000 -40.4000 25 atcf main 2027 2024 O_____________ atcf AL101968 19.0000 -40.4000 TD 25 -1 15 312
1968261N12336 1968 93 NA NA NOT_NAMED 1968-09-21 09:00:00 TS 19.4998 -40.9379 main 2042 2035 P_____________ AL101968 19.4998 -40.9379 TD 25 -1 14 317
1968261N12336 1968 93 NA NA NOT_NAMED 1968-09-21 12:00:00 TS 20.0000 -41.4000 25 atcf main 2053 2053 O_____________ atcf AL101968 20.0000 -41.4000 TD 25 -1 13 321
1968261N12336 1968 93 NA NA NOT_NAMED 1968-09-21 15:00:00 TS 20.5002 -41.8120 main 2072 2072 P_____________ AL101968 20.5002 -41.8120 TD 25 -1 13 323
1968261N12336 1968 93 NA NA NOT_NAMED 1968-09-21 18:00:00 TS 21.0000 -42.2000 25 atcf main 2095 O_____________ atcf AL101968 21.0000 -42.2000 TD 25 -1 12 324

About IBTrACS Database

This database is a web-friendly format of International Best Track Archive for Climate Stewardship (IBTrACS), a global best track data archive curated by NOAA dating back to 1842.

Updated: 2022-05-13